Time;durP1;ratioP1;P1;durP2;ratioP2;P2;SDS_P1;SDS_P2;PMS_P1;PMS_P2;Temp;Humidity;BMP_temperature;BMP_pressure;BME280_temperature;BME280_humidity;BME280_pressure;Samples;Min_cycle;Max_cycle;Signal;HPM_P1;HPM_P2
2023/10/31 00:00:55;;;;;;;70.82;37.10;;;;;;;18.31;99.88;100977.03;5052112;28;20090;-80
2023/10/31 00:03:20;;;;;;;77.10;40.40;;;;;;;18.23;100.00;100947.06;5052307;28;20059;-80
2023/10/31 00:05:46;;;;;;;85.00;40.83;;;;;;;18.33;100.00;100964.09;5052450;28;20028;-79
2023/10/31 00:08:11;;;;;;;71.13;39.35;;;;;;;18.26;100.00;100963.06;5052347;28;20025;-80
2023/10/31 00:10:37;;;;;;;72.05;39.72;;;;;;;18.18;100.00;100982.09;5052069;28;20028;-82
2023/10/31 00:13:02;;;;;;;71.22;39.75;;;;;;;18.07;100.00;100954.34;5052157;28;20044;-79
2023/10/31 00:15:30;;;;;;;73.03;38.78;;;;;;;18.21;100.00;100976.31;5051998;28;20488;-80
2023/10/31 00:17:55;;;;;;;77.22;39.97;;;;;;;18.17;100.00;100971.34;5052238;28;20112;-81
2023/10/31 00:20:21;;;;;;;75.70;39.10;;;;;;;18.17;100.00;100957.75;5052133;28;20104;-81
2023/10/31 00:22:46;;;;;;;70.72;40.20;;;;;;;18.24;100.00;100965.09;5051832;28;20056;-80
2023/10/31 00:25:12;;;;;;;76.43;43.83;;;;;;;18.26;100.00;100973.09;5052053;28;20036;-80
2023/10/31 00:27:37;;;;;;;69.28;41.92;;;;;;;18.23;100.00;100968.84;5052225;28;20482;-80
2023/10/31 00:30:03;;;;;;;63.65;40.83;;;;;;;18.26;100.00;100971.22;5052607;28;20485;-80
2023/10/31 00:32:29;;;;;;;72.30;42.03;;;;;;;18.22;100.00;100969.88;5052340;28;20048;-79
2023/10/31 00:34:54;;;;;;;67.28;42.72;;;;;;;18.11;100.00;100950.25;5052112;28;20025;-81
2023/10/31 00:37:20;;;;;;;69.88;42.58;;;;;;;18.06;100.00;100956.19;5066301;28;20033;-81
2023/10/31 00:39:45;;;;;;;74.13;41.25;;;;;;;17.98;100.00;100947.97;5069898;28;20025;-78
2023/10/31 00:42:11;;;;;;;75.57;44.28;;;;;;;18.05;100.00;100943.59;5054180;28;20487;-79
2023/10/31 00:44:36;;;;;;;79.32;41.83;;;;;;;17.97;100.00;100926.41;5051810;28;20035;-80
2023/10/31 00:47:04;;;;;;;64.63;39.78;;;;;;;18.04;100.00;100936.44;5051522;28;20029;-80
2023/10/31 00:49:30;;;;;;;76.20;45.65;;;;;;;17.94;100.00;100931.16;5051437;28;20562;-81
2023/10/31 00:51:55;;;;;;;77.57;45.17;;;;;;;17.93;100.00;100936.75;5051726;28;20033;-81
2023/10/31 00:54:21;;;;;;;78.80;46.10;;;;;;;17.94;100.00;100935.75;5052246;28;20021;-81
2023/10/31 00:56:46;;;;;;;76.90;45.58;;;;;;;18.02;100.00;100941.19;5051402;28;20459;-80
2023/10/31 00:59:12;;;;;;;80.22;46.92;;;;;;;17.97;100.00;100927.25;5051604;28;20028;-80
2023/10/31 01:01:37;;;;;;;87.78;45.35;;;;;;;17.92;100.00;100929.59;5050072;28;20029;-80
2023/10/31 01:04:03;;;;;;;77.07;46.58;;;;;;;18.00;100.00;100923.34;5051636;28;20392;-80
2023/10/31 01:06:28;;;;;;;80.78;44.15;;;;;;;17.98;100.00;100925.38;5051341;28;20098;-80
2023/10/31 01:08:54;;;;;;;73.65;45.35;;;;;;;17.86;100.00;100900.31;5051275;28;20036;-80
2023/10/31 01:11:19;;;;;;;91.70;45.10;;;;;;;17.99;100.00;100932.50;5051073;28;20032;-80
2023/10/31 01:13:44;;;;;;;80.47;45.75;;;;;;;17.90;100.00;100923.47;5051114;28;20028;-79
2023/10/31 01:16:10;;;;;;;91.05;49.72;;;;;;;17.87;100.00;100918.38;5050801;28;20040;-82
2023/10/31 01:18:36;;;;;;;90.68;49.17;;;;;;;17.87;100.00;100912.91;5051036;28;20499;-79
2023/10/31 01:21:01;;;;;;;91.72;51.45;;;;;;;17.91;100.00;100930.63;5050977;28;20489;-78
2023/10/31 01:23:27;;;;;;;84.55;48.17;;;;;;;18.11;100.00;100937.50;5051538;28;20468;-80
2023/10/31 01:25:52;;;;;;;94.05;48.47;;;;;;;18.07;100.00;100924.41;5051481;28;20412;-80
2023/10/31 01:28:18;;;;;;;83.18;46.28;;;;;;;18.12;100.00;100917.44;5055320;28;20098;-79
2023/10/31 01:30:43;;;;;;;92.00;50.75;;;;;;;18.10;100.00;100919.47;5069900;28;20068;-80
2023/10/31 01:33:09;;;;;;;85.85;46.42;;;;;;;18.11;100.00;100909.41;5063165;28;20411;-80
2023/10/31 01:35:34;;;;;;;77.13;46.55;;;;;;;18.01;100.00;100920.44;5051198;28;20036;-80
2023/10/31 01:38:00;;;;;;;81.40;42.42;;;;;;;17.85;100.00;100893.19;5050777;28;20048;-80
2023/10/31 01:40:25;;;;;;;78.68;39.88;;;;;;;18.02;100.00;100915.84;5050382;28;20080;-80
2023/10/31 01:42:51;;;;;;;109.95;39.70;;;;;;;17.95;100.00;100915.66;5050420;28;20032;-79
2023/10/31 01:45:16;;;;;;;84.35;38.40;;;;;;;17.93;100.00;100912.25;5049893;28;20166;-79
2023/10/31 01:47:46;;;;;;;93.45;39.15;;;;;;;17.83;100.00;100916.97;5050672;28;20481;-80
2023/10/31 01:50:12;;;;;;;77.75;40.60;;;;;;;17.77;100.00;100906.75;5050124;28;20036;-80
2023/10/31 01:52:38;;;;;;;86.35;39.78;;;;;;;17.69;100.00;100899.44;5050967;28;20025;-79
2023/10/31 01:55:04;;;;;;;103.15;40.50;;;;;;;17.73;100.00;100914.41;5050271;28;20033;-81
2023/10/31 01:57:30;;;;;;;72.50;39.05;;;;;;;17.68;100.00;100907.72;5064704;28;20044;-78
2023/10/31 01:59:56;;;;;;;73.20;38.92;;;;;;;17.41;100.00;100890.59;5050259;28;20408;-81
2023/10/31 02:02:24;;;;;;;73.88;39.17;;;;;;;17.58;100.00;100923.34;5050139;28;20029;-79
2023/10/31 02:04:50;;;;;;;68.28;38.40;;;;;;;17.55;100.00;100910.06;5050033;28;20035;-80
2023/10/31 02:07:16;;;;;;;73.97;40.88;;;;;;;17.49;100.00;100894.38;5050433;28;20029;-81
2023/10/31 02:09:41;;;;;;;95.47;42.33;;;;;;;17.34;100.00;100891.38;5050170;28;20048;-80
2023/10/31 02:12:07;;;;;;;105.25;49.05;;;;;;;17.55;100.00;100901.91;5047871;28;20033;-79
2023/10/31 02:14:32;;;;;;;89.35;44.70;;;;;;;17.58;100.00;100905.16;5050290;28;20025;-81
2023/10/31 02:16:58;;;;;;;96.05;44.67;;;;;;;17.53;100.00;100899.31;5050886;28;20029;-80
2023/10/31 02:19:23;;;;;;;92.68;43.33;;;;;;;17.53;100.00;100876.69;5050299;28;20040;-80
2023/10/31 02:21:49;;;;;;;88.13;43.05;;;;;;;17.55;100.00;100891.03;5063113;28;20056;-80
2023/10/31 02:24:14;;;;;;;82.78;40.67;;;;;;;17.51;100.00;100901.34;5066347;28;20036;-80
2023/10/31 02:26:40;;;;;;;73.25;40.30;;;;;;;17.49;100.00;100880.78;5054412;28;20086;-81
2023/10/31 02:29:07;;;;;;;73.32;38.33;;;;;;;17.60;100.00;100899.56;5049795;28;20063;-79
2023/10/31 02:31:32;;;;;;;65.95;39.72;;;;;;;17.55;100.00;100891.88;5048616;28;20029;-81
2023/10/31 02:33:58;;;;;;;65.18;38.70;;;;;;;17.52;100.00;100866.84;5049490;28;20412;-81
2023/10/31 02:36:23;;;;;;;64.68;36.10;;;;;;;17.63;100.00;100872.03;5049459;28;20021;-79
2023/10/31 02:38:49;;;;;;;60.05;37.13;;;;;;;17.64;100.00;100895.50;5049321;28;20041;-80
2023/10/31 02:41:15;;;;;;;62.97;37.70;;;;;;;17.66;100.00;100867.09;5049618;28;20097;-79
2023/10/31 02:43:41;;;;;;;62.08;38.08;;;;;;;17.70;100.00;100873.94;5049184;28;20067;-79
2023/10/31 02:46:07;;;;;;;62.40;35.72;;;;;;;17.74;100.00;100885.31;5049719;28;20056;-80
2023/10/31 02:48:38;;;;;;;75.38;37.97;;;;;;;17.62;100.00;100870.31;5049285;28;20055;-81
2023/10/31 02:51:07;;;;;;;73.22;37.38;;;;;;;17.69;100.00;100882.25;5049565;28;20024;-79
2023/10/31 02:53:33;;;;;;;72.97;38.05;;;;;;;17.69;100.00;100887.69;5049360;28;20029;-80
2023/10/31 02:55:59;;;;;;;75.03;37.95;;;;;;;17.74;100.00;100879.88;5048922;28;20029;-80
2023/10/31 02:58:24;;;;;;;66.55;37.15;;;;;;;17.64;100.00;100851.97;5046879;28;20045;-80
2023/10/31 03:00:50;;;;;;;61.83;35.83;;;;;;;17.77;100.00;100868.66;5048606;28;20405;-80
2023/10/31 03:03:15;;;;;;;61.55;37.35;;;;;;;17.66;100.00;100852.66;5049270;28;20103;-81
2023/10/31 03:05:41;;;;;;;61.90;34.40;;;;;;;17.84;100.00;100875.16;5049356;28;20167;-81
2023/10/31 03:08:08;;;;;;;59.42;35.85;;;;;;;17.66;100.00;100869.84;5050151;28;20103;-81
2023/10/31 03:10:33;;;;;;;65.20;32.38;;;;;;;17.61;100.00;100857.75;5049497;28;20032;-80
2023/10/31 03:12:59;;;;;;;53.45;31.38;;;;;;;17.55;100.00;100870.09;5052460;28;20344;-80
2023/10/31 03:15:24;;;;;;;51.67;30.52;;;;;;;17.48;100.00;100863.59;5067754;28;20057;-79
2023/10/31 03:17:50;;;;;;;54.28;31.88;;;;;;;17.50;100.00;100867.00;5061425;28;20044;-80
2023/10/31 03:20:15;;;;;;;53.15;32.20;;;;;;;17.51;100.00;100865.16;5049488;28;20032;-80
2023/10/31 03:22:41;;;;;;;51.55;30.73;;;;;;;17.49;100.00;100862.56;5049374;28;20053;-80
2023/10/31 03:25:07;;;;;;;45.40;27.75;;;;;;;17.61;100.00;100866.75;5049112;28;20124;-80
2023/10/31 03:27:32;;;;;;;54.33;29.00;;;;;;;17.62;100.00;100873.03;5048953;28;20029;-80
2023/10/31 03:29:57;;;;;;;55.63;31.25;;;;;;;17.54;100.00;100856.66;5049248;28;20473;-80
2023/10/31 03:32:23;;;;;;;49.45;29.45;;;;;;;17.65;100.00;100854.50;5049257;28;20025;-81
2023/10/31 03:34:48;;;;;;;46.78;28.08;;;;;;;17.81;100.00;100859.16;5048838;28;20032;-81
2023/10/31 03:37:14;;;;;;;58.55;30.33;;;;;;;17.87;100.00;100866.66;5049098;28;20049;-81
2023/10/31 03:39:39;;;;;;;57.13;31.33;;;;;;;17.87;100.00;100858.50;5048774;28;20033;-80
2023/10/31 03:42:05;;;;;;;58.22;30.83;;;;;;;17.87;100.00;100867.50;5048558;28;20499;-80
2023/10/31 03:44:30;;;;;;;55.10;31.13;;;;;;;17.92;100.00;100867.00;5048941;28;20064;-80
2023/10/31 03:46:56;;;;;;;48.75;29.85;;;;;;;17.94;100.00;100873.16;5048731;28;20029;-80
2023/10/31 03:49:21;;;;;;;48.80;31.33;;;;;;;17.97;100.00;100864.66;5048729;28;20032;-80
2023/10/31 03:51:47;;;;;;;47.75;30.67;;;;;;;17.86;100.00;100863.06;5049010;28;20028;-80
2023/10/31 03:54:12;;;;;;;48.88;30.17;;;;;;;17.88;100.00;100871.09;5049322;28;20104;-80
2023/10/31 03:56:42;;;;;;;44.95;31.52;;;;;;;17.80;100.00;100868.31;5047349;28;20354;-80
2023/10/31 03:59:08;;;;;;;44.95;31.05;;;;;;;17.75;100.00;100862.53;5049106;28;20025;-80
2023/10/31 04:01:33;;;;;;;48.60;32.17;;;;;;;17.81;100.00;100853.72;5049011;28;20035;-80
2023/10/31 04:03:59;;;;;;;45.15;31.40;;;;;;;17.87;100.00;100864.78;5049308;28;20396;-79
2023/10/31 04:06:24;;;;;;;47.50;31.80;;;;;;;17.93;100.00;100863.28;5061241;28;20037;-80
2023/10/31 04:08:50;;;;;;;50.78;33.30;;;;;;;17.84;100.00;100842.50;5069499;28;20024;-81
2023/10/31 04:11:15;;;;;;;50.65;32.10;;;;;;;17.79;100.00;100834.00;5054290;28;20056;-80
2023/10/31 04:13:40;;;;;;;48.65;32.33;;;;;;;17.96;100.00;100838.44;5052313;28;20036;-79
2023/10/31 04:16:06;;;;;;;47.45;33.42;;;;;;;18.03;100.00;100853.09;5051081;28;20079;-80
2023/10/31 04:18:32;;;;;;;50.58;31.73;;;;;;;17.99;100.00;100849.00;5052147;28;20025;-80
2023/10/31 04:20:58;;;;;;;59.35;33.53;;;;;;;18.02;100.00;100848.66;5051970;28;20021;-80
2023/10/31 04:23:23;;;;;;;45.90;29.27;;;;;;;18.09;100.00;100846.97;5051727;28;20127;-81
2023/10/31 04:25:52;;;;;;;47.90;29.02;;;;;;;18.24;100.00;100852.59;5051605;28;20033;-81
2023/10/31 04:28:18;;;;;;;48.35;30.55;;;;;;;18.26;100.00;100859.59;5051911;28;20029;-82
2023/10/31 04:30:43;;;;;;;46.38;28.30;;;;;;;18.33;100.00;100863.34;5052350;28;20106;-80
2023/10/31 04:33:09;;;;;;;48.33;28.35;;;;;;;18.36;100.00;100864.88;5051661;28;20028;-81
2023/10/31 04:35:34;;;;;;;47.47;28.33;;;;;;;18.29;100.00;100864.69;5052967;28;20185;-80
2023/10/31 04:38:00;;;;;;;89.15;32.92;;;;;;;18.39;100.00;100865.38;5052614;28;20534;-80
2023/10/31 04:40:25;;;;;;;45.45;29.42;;;;;;;18.41;100.00;100866.06;5051856;28;20028;-80
2023/10/31 04:42:50;;;;;;;58.65;29.00;;;;;;;18.46;100.00;100869.16;5051518;28;20060;-79
2023/10/31 04:45:16;;;;;;;49.65;26.67;;;;;;;18.44;100.00;100868.44;5051229;28;20051;-87
2023/10/31 04:47:42;;;;;;;55.67;27.45;;;;;;;18.03;100.00;100809.53;5051549;28;20036;-82
2023/10/31 04:50:08;;;;;;;53.45;27.05;;;;;;;18.47;100.00;100864.53;5051567;28;20159;-82
2023/10/31 04:52:33;;;;;;;41.33;26.88;;;;;;;18.46;100.00;100863.69;5052123;28;20029;-81
2023/10/31 04:54:59;;;;;;;56.20;27.50;;;;;;;18.44;100.00;100849.38;5051808;28;20036;-81
2023/10/31 04:57:24;;;;;;;40.20;25.05;;;;;;;18.59;100.00;100870.53;5053760;28;20053;-80
2023/10/31 04:59:49;;;;;;;89.88;29.65;;;;;;;18.59;100.00;100852.28;5072532;28;20021;-80
2023/10/31 05:02:15;;;;;;;31.13;19.33;;;;;;;18.63;100.00;100860.97;5067769;28;20025;-81
2023/10/31 05:04:41;;;;;;;77.38;24.33;;;;;;;18.62;100.00;100853.84;5051941;28;20082;-82
2023/10/31 05:07:06;;;;;;;58.88;25.02;;;;;;;18.73;100.00;100862.53;5051001;28;20576;-82
2023/10/31 05:09:32;;;;;;;45.58;21.50;;;;;;;18.66;100.00;100847.88;5050960;28;20035;-82
2023/10/31 05:11:57;;;;;;;38.42;21.13;;;;;;;18.66;100.00;100858.78;5050982;28;20134;-82
2023/10/31 05:14:23;;;;;;;27.38;19.08;;;;;;;18.66;100.00;100863.38;5050982;28;20028;-79
2023/10/31 05:16:48;;;;;;;58.92;22.50;;;;;;;18.75;100.00;100865.06;5050633;28;21198;-80
2023/10/31 05:19:14;;;;;;;42.78;21.10;;;;;;;18.79;100.00;100878.19;5050419;28;20056;-79
2023/10/31 05:21:39;;;;;;;43.72;20.20;;;;;;;18.75;100.00;100871.38;5051589;28;20045;-77
2023/10/31 05:24:05;;;;;;;32.97;18.45;;;;;;;18.74;100.00;100887.91;5050536;28;20033;-79
2023/10/31 05:26:31;;;;;;;36.28;18.00;;;;;;;18.56;100.00;100876.34;5051453;28;20025;-79
2023/10/31 05:28:57;;;;;;;34.92;20.77;;;;;;;18.60;100.00;100889.44;5051526;28;20508;-78
2023/10/31 05:31:24;;;;;;;31.67;19.27;;;;;;;18.59;100.00;100881.44;5051141;28;20025;-79
2023/10/31 05:33:51;;;;;;;43.97;19.85;;;;;;;18.51;100.00;100889.59;5051319;28;20036;-79
2023/10/31 05:36:20;;;;;;;59.45;20.42;;;;;;;18.46;100.00;100885.50;5051045;28;20416;-79
2023/10/31 05:38:46;;;;;;;32.83;16.88;;;;;;;18.43;100.00;100887.69;5050670;28;20056;-78
2023/10/31 05:41:12;;;;;;;27.88;18.88;;;;;;;18.52;100.00;100885.84;5051415;28;20029;-82
2023/10/31 05:43:37;;;;;;;45.75;20.38;;;;;;;18.51;100.00;100865.06;5051111;28;20028;-80
2023/10/31 05:46:03;;;;;;;46.08;20.50;;;;;;;18.62;100.00;100867.47;5051563;28;20116;-81
2023/10/31 05:48:31;;;;;;;32.17;17.08;;;;;;;18.60;99.29;100869.50;5051193;28;20074;-83
2023/10/31 05:50:56;;;;;;;32.03;17.42;;;;;;;18.82;99.26;100898.78;5063450;28;20025;-81
2023/10/31 05:53:21;;;;;;;44.55;18.33;;;;;;;18.77;98.39;100890.28;5070191;28;20084;-79
2023/10/31 05:55:47;;;;;;;40.10;19.30;;;;;;;18.78;98.13;100892.81;5055426;28;20032;-79
2023/10/31 05:58:12;;;;;;;36.42;19.40;;;;;;;18.61;97.88;100873.94;5050665;28;20091;-82
2023/10/31 06:00:38;;;;;;;37.40;20.00;;;;;;;18.50;99.08;100852.50;5050158;28;20398;-81
2023/10/31 06:03:03;;;;;;;29.52;17.33;;;;;;;18.58;98.80;100880.59;5050258;28;20036;-81
2023/10/31 06:05:29;;;;;;;30.08;15.70;;;;;;;18.43;98.41;100883.09;5050106;28;20644;-80
2023/10/31 06:07:54;;;;;;;30.05;17.25;;;;;;;18.46;98.65;100904.56;5050085;28;20021;-80
2023/10/31 06:10:21;;;;;;;29.92;18.63;;;;;;;18.35;99.75;100874.91;5050032;28;20042;-80
2023/10/31 06:12:47;;;;;;;42.15;19.33;;;;;;;18.48;99.90;100894.34;5048497;28;20416;-81
2023/10/31 06:15:12;;;;;;;37.17;17.88;;;;;;;18.55;100.00;100891.81;5048549;28;20044;-80
2023/10/31 06:17:38;;;;;;;33.80;18.73;;;;;;;18.74;99.81;100899.66;5049734;28;20021;-80
2023/10/31 06:20:03;;;;;;;46.80;18.52;;;;;;;18.82;98.98;100904.25;5049830;28;20519;-80
2023/10/31 06:22:29;;;;;;;34.72;16.38;;;;;;;18.78;98.25;100905.59;5049784;28;20049;-80
2023/10/31 06:24:54;;;;;;;30.08;17.10;;;;;;;18.80;98.24;100889.94;5050013;28;20516;-81
2023/10/31 06:27:20;;;;;;;44.08;18.40;;;;;;;18.80;98.21;100871.72;5049765;28;20029;-81
2023/10/31 06:29:45;;;;;;;29.95;18.58;;;;;;;18.97;98.03;100876.13;5049704;28;20052;-81
2023/10/31 06:32:11;;;;;;;31.38;18.95;;;;;;;19.15;97.98;100889.53;5049706;28;20036;-81
2023/10/31 06:34:36;;;;;;;45.67;19.83;;;;;;;19.14;97.36;100867.91;5049650;28;20021;-80
2023/10/31 06:37:03;;;;;;;52.55;17.80;;;;;;;19.19;95.96;100869.09;5050220;28;20045;-81
2023/10/31 06:39:28;;;;;;;26.75;14.73;;;;;;;19.20;95.22;100884.44;5048862;28;20370;-81
2023/10/31 06:41:57;;;;;;;34.42;14.45;;;;;;;18.92;95.06;100851.28;5053178;28;20052;-79
2023/10/31 06:44:22;;;;;;;27.95;15.60;;;;;;;19.20;95.25;100887.16;5068228;28;20033;-79
2023/10/31 06:46:48;;;;;;;47.40;17.02;;;;;;;19.31;94.82;100873.13;5063828;28;20114;-80
2023/10/31 06:49:13;;;;;;;45.75;16.38;;;;;;;19.12;93.69;100846.25;5049620;28;20028;-80
2023/10/31 06:51:38;;;;;;;42.05;15.80;;;;;;;19.23;93.37;100853.22;5049252;28;20029;-80
2023/10/31 06:54:04;;;;;;;59.03;18.48;;;;;;;19.37;93.17;100877.03;5049086;28;20067;-79
2023/10/31 06:56:30;;;;;;;28.35;15.20;;;;;;;19.40;93.53;100877.56;5048747;28;20508;-81
2023/10/31 06:58:55;;;;;;;36.00;16.13;;;;;;;19.45;93.22;100864.25;5048021;28;20053;-81
2023/10/31 07:01:21;;;;;;;38.40;16.58;;;;;;;19.32;92.35;100847.59;5049474;28;20025;-83
2023/10/31 07:03:47;;;;;;;34.45;14.23;;;;;;;19.39;92.51;100854.03;5049709;28;20396;-82
2023/10/31 07:06:13;;;;;;;32.85;14.55;;;;;;;19.60;91.85;100871.72;5049817;28;20061;-81
2023/10/31 07:08:38;;;;;;;20.80;12.45;;;;;;;19.39;91.42;100867.69;5049003;28;20083;-80
2023/10/31 07:11:04;;;;;;;40.05;16.27;;;;;;;19.40;91.80;100866.66;5049835;28;20024;-82
2023/10/31 07:13:30;;;;;;;25.27;13.63;;;;;;;19.43;91.39;100860.00;5049524;28;20021;-81
2023/10/31 07:15:56;;;;;;;39.25;12.13;;;;;;;19.50;90.11;100877.38;5049545;28;20078;-81
2023/10/31 07:18:21;;;;;;;37.88;17.38;;;;;;;19.41;90.01;100857.47;5048842;28;20032;-82
2023/10/31 07:20:47;;;;;;;43.65;13.23;;;;;;;19.36;89.54;100848.91;5049485;28;20040;-80
2023/10/31 07:23:12;;;;;;;22.67;11.93;;;;;;;19.47;89.71;100873.13;5048426;28;20045;-81
2023/10/31 07:25:38;;;;;;;24.50;11.93;;;;;;;19.55;90.02;100869.50;5049226;28;20103;-84
2023/10/31 07:28:03;;;;;;;40.38;13.02;;;;;;;19.67;89.55;100872.69;5049871;28;20028;-80
2023/10/31 07:30:29;;;;;;;29.15;12.05;;;;;;;19.76;88.86;100874.34;5050579;28;20425;-82
2023/10/31 07:32:55;;;;;;;37.20;14.65;;;;;;;19.73;88.50;100864.66;5050144;28;20108;-83
2023/10/31 07:35:20;;;;;;;34.28;12.73;;;;;;;19.82;88.83;100865.44;5063509;28;20025;-82
2023/10/31 07:37:46;;;;;;;26.55;11.32;;;;;;;19.69;88.10;100843.34;5067625;28;20029;-81
2023/10/31 07:40:12;;;;;;;33.17;12.63;;;;;;;19.95;87.75;100873.91;5053220;28;20029;-81
2023/10/31 07:42:37;;;;;;;21.75;11.55;;;;;;;19.91;87.24;100858.91;5049071;28;20029;-81
2023/10/31 07:45:03;;;;;;;36.03;12.40;;;;;;;19.96;87.61;100862.81;5047666;28;20033;-84
2023/10/31 07:47:29;;;;;;;29.02;12.20;;;;;;;20.18;87.64;100863.88;5049970;28;20071;-81
2023/10/31 07:49:54;;;;;;;27.73;11.30;;;;;;;20.32;87.14;100867.72;5052569;28;20020;-80
2023/10/31 07:52:20;;;;;;;29.23;10.73;;;;;;;20.36;86.19;100856.28;5052642;28;20032;-81
2023/10/31 07:54:45;;;;;;;24.25;11.85;;;;;;;20.35;85.06;100868.22;5052757;28;20029;-80
2023/10/31 07:57:23;;;;;;;28.35;11.80;;;;;;;20.31;85.59;100872.34;5051045;28;20082;-82
2023/10/31 07:59:48;;;;;;;22.08;11.50;;;;;;;20.19;86.53;100838.25;5052319;28;20025;-80
2023/10/31 08:02:13;;;;;;;17.45;9.23;;;;;;;20.19;86.56;100849.19;5050467;28;20025;-81
2023/10/31 08:04:39;;;;;;;22.58;10.18;;;;;;;20.30;86.71;100862.47;5050785;28;20025;-81
2023/10/31 08:07:04;;;;;;;34.22;13.68;;;;;;;20.36;86.25;100869.94;5052176;28;20031;-81
2023/10/31 08:09:30;;;;;;;27.98;10.85;;;;;;;20.09;85.22;100815.78;5052131;28;20021;-82
2023/10/31 08:11:55;;;;;;;38.28;10.52;;;;;;;20.38;85.88;100862.41;5052151;28;20405;-82
2023/10/31 08:14:22;;;;;;;14.15;10.27;;;;;;;20.38;86.08;100856.06;5052084;28;20064;-81
2023/10/31 08:16:47;;;;;;;22.45;8.98;;;;;;;20.44;85.38;100848.00;5052053;28;20044;-81
2023/10/31 08:19:14;;;;;;;25.42;9.32;;;;;;;20.46;84.14;100854.13;5051040;28;20037;-81
2023/10/31 08:21:40;;;;;;;31.20;10.75;;;;;;;20.33;84.70;100845.72;5051402;28;20099;-80
2023/10/31 08:24:06;;;;;;;25.20;11.32;;;;;;;20.45;85.06;100852.44;5052357;28;20029;-82
2023/10/31 08:26:32;;;;;;;31.23;12.10;;;;;;;20.45;84.75;100836.06;5062988;28;20029;-80
2023/10/31 08:28:58;;;;;;;20.17;9.05;;;;;;;20.59;83.91;100843.44;5075728;28;20087;-81
2023/10/31 08:31:24;;;;;;;24.40;10.52;;;;;;;20.61;82.95;100841.34;5065341;28;20017;-80
2023/10/31 08:33:49;;;;;;;20.00;9.52;;;;;;;20.33;83.80;100821.13;5052088;28;20195;-81
2023/10/31 08:36:15;;;;;;;30.67;12.13;;;;;;;20.35;84.53;100818.19;5051575;28;20021;-81
2023/10/31 08:38:40;;;;;;;30.42;12.23;;;;;;;20.58;84.35;100841.72;5050643;28;20036;-81
2023/10/31 08:41:06;;;;;;;37.10;10.52;;;;;;;20.58;83.34;100819.84;5050122;28;20021;-81
2023/10/31 08:43:32;;;;;;;19.23;8.73;;;;;;;20.81;82.13;100835.38;5051292;28;20060;-81
2023/10/31 08:45:57;;;;;;;22.90;9.43;;;;;;;20.82;81.38;100821.53;5051266;28;20037;-81
2023/10/31 08:48:23;;;;;;;20.85;10.93;;;;;;;20.95;81.71;100826.31;5050304;28;20029;-82
2023/10/31 08:50:48;;;;;;;21.45;8.00;;;;;;;21.01;80.93;100825.56;5051382;28;20056;-82
2023/10/31 08:53:14;;;;;;;20.00;10.13;;;;;;;20.67;81.97;100807.00;5049857;28;20111;-81
2023/10/31 08:55:43;;;;;;;13.00;9.15;;;;;;;20.70;82.77;100794.81;5051389;28;20033;-81
2023/10/31 08:58:10;;;;;;;25.63;9.50;;;;;;;20.95;83.00;100812.66;5048556;28;20029;-81
2023/10/31 09:00:36;;;;;;;26.63;10.68;;;;;;;20.96;82.48;100807.00;5051486;28;20051;-82
2023/10/31 09:03:01;;;;;;;19.02;10.65;;;;;;;20.91;82.43;100770.34;5050968;28;20060;-81
2023/10/31 09:05:27;;;;;;;30.75;11.23;;;;;;;21.05;82.17;100773.06;5050195;28;20511;-82
2023/10/31 09:07:52;;;;;;;25.27;9.30;;;;;;;21.12;80.59;100797.81;5050805;28;20029;-81
2023/10/31 09:10:18;;;;;;;15.90;9.25;;;;;;;20.98;80.64;100801.34;5051111;28;20489;-82
2023/10/31 09:12:43;;;;;;;21.08;9.25;;;;;;;20.87;82.21;100805.41;5051127;28;20033;-82
2023/10/31 09:15:09;;;;;;;21.30;9.20;;;;;;;20.95;82.43;100799.84;5051319;28;20032;-81
2023/10/31 09:17:34;;;;;;;25.83;8.50;;;;;;;20.99;82.41;100784.75;5050214;28;20059;-81
2023/10/31 09:20:00;;;;;;;23.35;10.20;;;;;;;21.01;82.31;100779.09;5068390;28;20036;-81
2023/10/31 09:22:25;;;;;;;36.08;11.10;;;;;;;21.13;82.07;100780.34;5074295;28;20051;-81
2023/10/31 09:24:51;;;;;;;15.98;7.80;;;;;;;21.04;80.75;100786.91;5053930;28;20398;-82
2023/10/31 09:27:16;;;;;;;19.75;9.43;;;;;;;20.99;82.42;100787.50;5049392;28;20025;-81
2023/10/31 09:29:42;;;;;;;17.60;8.35;;;;;;;20.90;80.88;100768.63;5050601;28;20398;-83
2023/10/31 09:32:07;;;;;;;19.55;8.25;;;;;;;20.59;81.82;100745.03;5050583;28;20126;-81
2023/10/31 09:34:33;;;;;;;18.08;8.85;;;;;;;20.74;82.62;100752.41;5050809;28;20029;-81
2023/10/31 09:36:58;;;;;;;18.35;9.15;;;;;;;20.99;82.35;100768.34;5049576;28;20053;-81
2023/10/31 09:39:24;;;;;;;26.55;9.40;;;;;;;20.96;82.40;100749.59;5048915;28;20036;-81
2023/10/31 09:41:50;;;;;;;21.50;9.60;;;;;;;21.02;81.53;100758.91;5048612;28;20416;-82
2023/10/31 09:44:15;;;;;;;13.40;8.27;;;;;;;20.94;81.67;100726.22;5051618;28;20029;-81
2023/10/31 09:46:41;;;;;;;15.00;8.13;;;;;;;20.90;81.14;100735.81;5048653;28;20043;-81
2023/10/31 09:49:08;;;;;;;99.05;17.45;;;;;;;21.02;81.45;100745.25;5049214;28;20029;-81
2023/10/31 09:51:34;;;;;;;33.67;11.18;;;;;;;20.97;82.84;100731.28;5049085;28;20024;-81
2023/10/31 09:54:01;;;;;;;14.48;8.50;;;;;;;20.98;81.96;100689.22;5050283;28;20040;-81
2023/10/31 09:56:34;;;;;;;26.15;10.10;;;;;;;21.40;80.83;100735.91;5049883;28;20029;-81
2023/10/31 09:59:00;;;;;;;29.23;8.98;;;;;;;21.09;79.73;100694.25;5049773;28;20025;-80
2023/10/31 10:01:25;;;;;;;21.15;9.40;;;;;;;21.25;81.25;100718.66;5050560;28;20025;-82
2023/10/31 10:03:51;;;;;;;32.65;10.20;;;;;;;21.32;80.67;100700.41;5050101;28;20029;-80
2023/10/31 10:06:21;;;;;;;22.38;9.77;;;;;;;21.60;79.95;100719.69;5051724;28;20071;-81
2023/10/31 10:08:46;;;;;;;33.13;9.80;;;;;;;21.75;79.52;100725.09;5050237;28;20048;-79
2023/10/31 10:11:12;;;;;;;33.97;10.57;;;;;;;21.58;79.02;100692.53;5055363;28;20064;-81
2023/10/31 10:13:38;;;;;;;23.02;8.15;;;;;;;21.73;78.48;100710.78;5066510;28;20037;-81
2023/10/31 10:16:04;;;;;;;26.50;11.07;;;;;;;21.39;79.25;100698.63;5058760;28;20185;-81
2023/10/31 10:18:35;;;;;;;19.10;10.00;;;;;;;21.38;78.87;100690.59;5047549;28;20116;-81
2023/10/31 10:21:03;;;;;;;19.67;10.23;;;;;;;21.29;80.08;100689.00;5049513;28;20060;-82
2023/10/31 10:23:29;;;;;;;15.50;9.25;;;;;;;21.22;80.71;100669.81;5049216;28;20498;-81
2023/10/31 10:25:57;;;;;;;24.73;10.10;;;;;;;21.41;81.12;100680.09;5049237;28;20021;-82
2023/10/31 10:28:24;;;;;;;32.08;9.50;;;;;;;21.41;80.86;100696.53;5049701;28;20031;-81
2023/10/31 10:30:51;;;;;;;19.75;8.98;;;;;;;21.41;80.63;100691.06;5049570;28;20441;-81
2023/10/31 10:33:17;;;;;;;18.80;10.13;;;;;;;21.44;80.50;100684.34;5049265;28;20485;-81
2023/10/31 10:35:44;;;;;;;17.90;9.43;;;;;;;21.54;80.38;100679.41;5049122;28;20193;-82
2023/10/31 10:38:19;;;;;;;70.18;12.77;;;;;;;21.30;79.98;100623.16;5051579;28;20033;-80
2023/10/31 10:40:47;;;;;;;28.35;11.57;;;;;;;21.80;79.46;100687.03;5049895;28;20029;-81
2023/10/31 10:43:22;;;;;;;17.90;10.82;;;;;;;21.67;80.04;100679.56;5049219;28;20025;-80
2023/10/31 10:46:00;;;;;;;25.73;10.63;;;;;;;21.64;79.75;100658.88;5049328;28;20404;-81
2023/10/31 10:48:26;;;;;;;33.92;10.13;;;;;;;21.83;79.84;100640.09;5049519;28;20025;-81
2023/10/31 10:51:20;;;;;;;64.85;14.70;;;;;;;21.96;78.41;100646.56;5049381;28;20531;-81
2023/10/31 10:53:52;;;;;;;34.38;11.75;;;;;;;22.06;78.00;100662.66;5049178;28;20048;-81
2023/10/31 10:56:28;;;;;;;17.48;9.80;;;;;;;22.01;76.80;100665.16;5030031;28;20045;-82
2023/10/31 10:59:06;;;;;;;19.75;9.18;;;;;;;21.99;77.01;100650.78;5048827;28;20044;-82
2023/10/31 11:01:33;;;;;;;24.20;10.43;;;;;;;21.94;77.38;100653.28;5032230;28;20097;-81